Time;durP1;ratioP1;P1;durP2;ratioP2;P2;SDS_P1;SDS_P2;PMS_P1;PMS_P2;Temp;Humidity;BMP_temperature;BMP_pressure;BME280_temperature;BME280_humidity;BME280_pressure;Samples;Min_cycle;Max_cycle;Signal;HPM_P1;HPM_P2
2021/12/30 00:02:17;;;;;;;0.53;0.40;;;13.50;87.90;;;;;;7365237;19;20383;-42
2021/12/30 00:04:47;;;;;;;0.40;0.30;;;13.50;87.80;;;;;;7372076;19;20377;-42
2021/12/30 00:07:19;;;;;;;0.80;0.40;;;13.50;87.80;;;;;;7366349;19;20953;-42
2021/12/30 00:09:48;;;;;;;0.70;0.30;;;13.50;88.00;;;;;;7370727;19;21242;-36
2021/12/30 00:12:18;;;;;;;3.90;0.70;;;13.40;87.90;;;;;;7360443;19;20852;-37
2021/12/30 00:14:48;;;;;;;0.50;0.50;;;13.40;87.70;;;;;;7364627;19;21428;-37
2021/12/30 00:17:17;;;;;;;0.60;0.50;;;13.30;87.40;;;;;;7362171;19;21006;-37
2021/12/30 00:19:47;;;;;;;0.50;0.40;;;13.40;86.90;;;;;;7370899;19;20368;-36
2021/12/30 00:22:19;;;;;;;1.23;0.40;;;13.40;86.50;;;;;;7367227;19;20383;-37
2021/12/30 00:24:51;;;;;;;0.80;0.50;;;13.40;86.50;;;;;;7363275;19;20367;-37
2021/12/30 00:27:20;;;;;;;0.73;0.50;;;13.40;87.20;;;;;;7371216;19;20946;-37
2021/12/30 00:29:50;;;;;;;0.70;0.50;;;13.40;85.30;;;;;;7362188;19;20394;-37
2021/12/30 00:32:20;;;;;;;0.60;0.50;;;13.40;84.90;;;;;;7370349;19;20859;-37
2021/12/30 00:34:50;;;;;;;0.90;0.80;;;13.50;84.40;;;;;;7364193;19;20387;-37
2021/12/30 00:37:24;;;;;;;1.70;0.50;;;13.50;84.10;;;;;;7370751;19;20384;-37
2021/12/30 00:39:54;;;;;;;0.73;0.50;;;13.50;84.10;;;;;;7363831;19;20893;-38
2021/12/30 00:42:23;;;;;;;2.07;0.50;;;13.60;83.20;;;;;;7365595;19;20372;-38
2021/12/30 00:44:55;;;;;;;3.33;0.60;;;13.60;82.90;;;;;;7368402;19;20753;-37
2021/12/30 00:47:24;;;;;;;2.27;1.00;;;13.60;82.60;;;;;;7370900;19;20379;-37
2021/12/30 00:49:54;;;;;;;1.20;0.70;;;13.60;82.50;;;;;;7373360;19;20379;-37
2021/12/30 00:52:28;;;;;;;2.00;1.10;;;13.60;82.60;;;;;;7363903;19;20480;-37
2021/12/30 00:54:58;;;;;;;1.63;0.60;;;13.60;81.60;;;;;;7357562;19;20409;-38
2021/12/30 00:57:27;;;;;;;0.67;0.50;;;13.60;81.70;;;;;;7369080;19;20387;-37
2021/12/30 00:59:57;;;;;;;2.53;0.70;;;13.60;81.60;;;;;;7364757;19;20440;-37
2021/12/30 01:02:26;;;;;;;1.37;0.70;;;13.60;81.90;;;;;;7365814;19;20460;-36
2021/12/30 01:04:56;;;;;;;0.97;0.70;;;13.50;82.30;;;;;;7367773;19;20376;-37
2021/12/30 01:07:28;;;;;;;0.50;0.40;;;13.40;81.80;;;;;;7370451;19;20376;-37
2021/12/30 01:09:59;;;;;;;2.30;1.03;;;13.40;82.20;;;;;;7365347;19;20368;-42
2021/12/30 01:12:29;;;;;;;1.07;0.60;;;13.20;81.90;;;;;;7360494;19;20751;-42
2021/12/30 01:14:58;;;;;;;2.27;0.90;;;13.40;81.80;;;;;;7367341;19;20441;-42
2021/12/30 01:17:41;;;;;;;1.90;0.80;;;13.40;81.60;;;;;;7358522;19;20409;-42
2021/12/30 01:20:14;;;;;;;0.83;0.50;;;13.50;81.10;;;;;;7370036;19;20986;-42
2021/12/30 01:22:47;;;;;;;5.33;1.00;;;13.50;81.10;;;;;;7360159;19;20876;-42
2021/12/30 01:25:17;;;;;;;2.40;0.90;;;13.50;81.30;;;;;;7361002;19;20730;-42
2021/12/30 01:27:50;;;;;;;0.67;0.53;;;13.40;81.10;;;;;;7369692;19;20385;-42
2021/12/30 01:30:22;;;;;;;0.30;0.30;;;13.40;81.00;;;;;;7362221;19;20388;-42
2021/12/30 01:32:51;;;;;;;1.00;0.50;;;13.50;81.30;;;;;;7367441;19;20371;-42
2021/12/30 01:35:25;;;;;;;1.73;0.80;;;13.40;80.90;;;;;;7355443;19;20415;-42
2021/12/30 01:38:01;;;;;;;1.90;0.50;;;13.50;80.60;;;;;;7360955;19;20792;-42
2021/12/30 01:40:33;;;;;;;0.90;0.70;;;13.40;80.50;;;;;;7368804;19;20825;-42
2021/12/30 01:43:02;;;;;;;0.87;0.60;;;13.40;81.10;;;;;;7367229;19;20963;-42
2021/12/30 01:45:32;;;;;;;1.13;1.03;;;13.40;81.20;;;;;;7367245;19;20409;-42
2021/12/30 01:48:03;;;;;;;1.77;0.60;;;13.40;81.40;;;;;;7367260;19;20384;-42
2021/12/30 01:50:33;;;;;;;0.87;0.60;;;13.40;80.90;;;;;;7377273;19;20360;-42
2021/12/30 01:53:06;;;;;;;1.10;0.70;;;13.40;80.80;;;;;;7360052;19;20372;-42
2021/12/30 01:55:37;;;;;;;1.90;0.57;;;13.40;81.10;;;;;;7360296;19;20407;-42
2021/12/30 01:58:08;;;;;;;3.27;0.80;;;13.30;81.10;;;;;;7371076;19;20357;-42
2021/12/30 02:00:43;;;;;;;1.37;0.70;;;13.30;81.30;;;;;;7374019;19;20376;-42
2021/12/30 02:03:16;;;;;;;1.87;0.80;;;13.20;81.50;;;;;;7368257;19;20376;-42
2021/12/30 02:05:46;;;;;;;2.70;1.10;;;13.20;81.70;;;;;;7365014;19;20376;-42
2021/12/30 02:08:22;;;;;;;3.90;0.70;;;13.20;81.50;;;;;;7372681;19;20898;-42
2021/12/30 02:10:52;;;;;;;3.33;1.10;;;13.10;81.60;;;;;;7353955;19;20435;-42
2021/12/30 02:13:26;;;;;;;2.03;0.73;;;13.10;80.60;;;;;;7359811;19;20379;-41
2021/12/30 02:16:01;;;;;;;0.93;0.90;;;13.20;80.90;;;;;;7370625;19;22212;-42
2021/12/30 02:18:31;;;;;;;2.80;1.40;;;13.20;80.80;;;;;;7369975;19;20716;-42
2021/12/30 02:21:04;;;;;;;3.13;1.00;;;13.20;80.90;;;;;;7374991;19;20415;-42
2021/12/30 02:23:36;;;;;;;0.60;0.47;;;13.20;80.30;;;;;;7363343;19;20372;-42
2021/12/30 02:26:08;;;;;;;1.97;0.83;;;13.20;80.30;;;;;;7364357;19;20375;-42
2021/12/30 02:28:39;;;;;;;0.87;0.50;;;13.30;79.70;;;;;;7356191;19;22290;-42
2021/12/30 02:31:13;;;;;;;2.13;1.30;;;13.40;79.80;;;;;;7367784;19;20392;-42
2021/12/30 02:33:43;;;;;;;1.33;0.50;;;13.40;79.70;;;;;;7371141;19;20387;-41
2021/12/30 02:36:16;;;;;;;2.30;0.80;;;13.30;79.80;;;;;;7372915;19;20463;-42
2021/12/30 02:38:46;;;;;;;1.83;0.93;;;13.30;79.60;;;;;;7362795;19;25586;-42
2021/12/30 02:41:19;;;;;;;3.93;0.83;;;13.30;79.50;;;;;;7363956;19;20380;-42
2021/12/30 02:43:51;;;;;;;3.67;1.33;;;13.30;80.00;;;;;;7372283;19;20905;-42
2021/12/30 02:46:28;;;;;;;0.87;0.87;;;13.30;79.90;;;;;;7370213;19;21052;-42
2021/12/30 02:49:01;;;;;;;1.70;0.87;;;13.40;79.50;;;;;;7371344;19;20376;-42
2021/12/30 02:51:36;;;;;;;0.70;0.70;;;13.40;79.30;;;;;;7363765;19;20381;-37
2021/12/30 02:54:08;;;;;;;1.50;0.83;;;13.50;78.90;;;;;;7356923;19;20702;-37
2021/12/30 02:56:38;;;;;;;3.47;0.73;;;13.40;79.10;;;;;;7366900;19;20372;-37
2021/12/30 02:59:08;;;;;;;1.20;0.80;;;13.40;79.10;;;;;;7363010;19;20382;-37
2021/12/30 03:01:37;;;;;;;1.10;0.80;;;13.50;79.30;;;;;;7368486;19;20377;-36
2021/12/30 03:04:07;;;;;;;0.80;0.80;;;13.50;79.40;;;;;;7364081;19;20397;-37
2021/12/30 03:06:39;;;;;;;4.33;0.90;;;13.50;79.60;;;;;;7365705;19;20735;-37
2021/12/30 03:09:09;;;;;;;3.03;1.03;;;13.50;79.50;;;;;;7369311;19;20372;-37
2021/12/30 03:11:38;;;;;;;0.90;0.50;;;13.50;80.00;;;;;;7363591;19;20447;-37
2021/12/30 03:14:08;;;;;;;3.60;0.63;;;13.50;79.70;;;;;;7364056;19;21233;-37
2021/12/30 03:16:37;;;;;;;1.93;0.70;;;13.50;80.00;;;;;;7367511;19;20379;-37
2021/12/30 03:19:08;;;;;;;1.13;0.60;;;13.50;79.90;;;;;;7364865;19;20412;-38
2021/12/30 03:21:40;;;;;;;1.13;0.60;;;13.50;80.00;;;;;;7367150;19;20384;-42
2021/12/30 03:24:09;;;;;;;0.40;0.30;;;13.50;80.20;;;;;;7369328;19;20361;-42
2021/12/30 03:26:39;;;;;;;0.70;0.43;;;13.50;80.20;;;;;;7366711;19;20380;-42
2021/12/30 03:29:09;;;;;;;1.07;0.50;;;13.50;80.10;;;;;;7369047;19;20397;-42
2021/12/30 03:31:39;;;;;;;0.40;0.40;;;13.60;80.30;;;;;;7357638;19;20388;-42
2021/12/30 03:34:08;;;;;;;0.80;0.60;;;13.60;80.10;;;;;;7369348;19;20391;-42
2021/12/30 03:36:40;;;;;;;1.70;0.50;;;13.60;80.00;;;;;;7364019;19;20392;-42
2021/12/30 03:39:11;;;;;;;0.83;0.60;;;13.60;80.30;;;;;;7368186;19;21076;-42
2021/12/30 03:41:40;;;;;;;1.47;0.60;;;13.60;80.70;;;;;;7368942;19;20421;-42
2021/12/30 03:44:10;;;;;;;1.23;0.67;;;13.60;80.70;;;;;;7367426;19;20425;-42
2021/12/30 03:46:39;;;;;;;1.33;0.50;;;13.60;80.80;;;;;;7363344;19;20380;-42
2021/12/30 03:49:10;;;;;;;1.07;0.40;;;13.60;81.40;;;;;;7369644;19;20372;-41
2021/12/30 03:51:42;;;;;;;0.63;0.63;;;13.60;81.00;;;;;;7357346;19;20492;-42
2021/12/30 03:54:14;;;;;;;3.13;0.67;;;13.60;81.30;;;;;;7364741;19;20372;-42
2021/12/30 03:56:44;;;;;;;1.83;0.70;;;13.60;81.70;;;;;;7361126;19;20376;-42
2021/12/30 03:59:13;;;;;;;0.57;0.50;;;13.50;81.80;;;;;;7361367;19;20423;-42
2021/12/30 04:01:43;;;;;;;0.70;0.67;;;13.50;81.00;;;;;;7363017;19;20739;-42
2021/12/30 04:04:13;;;;;;;0.83;0.50;;;13.60;81.20;;;;;;7360163;19;20408;-42
2021/12/30 04:06:45;;;;;;;0.57;0.50;;;13.60;81.40;;;;;;7367286;19;20387;-42
2021/12/30 04:09:14;;;;;;;0.87;0.77;;;13.60;81.50;;;;;;7366945;19;20384;-42
2021/12/30 04:11:46;;;;;;;0.30;0.30;;;13.60;81.40;;;;;;7361587;19;20425;-41
2021/12/30 04:14:16;;;;;;;0.40;0.40;;;13.60;81.80;;;;;;7368061;19;20372;-41
2021/12/30 04:16:46;;;;;;;1.17;0.60;;;13.60;81.80;;;;;;7356988;19;20379;-41
2021/12/30 04:19:15;;;;;;;0.40;0.40;;;13.60;81.90;;;;;;7368693;19;20400;-41
2021/12/30 04:21:47;;;;;;;0.60;0.50;;;13.60;82.70;;;;;;7364134;19;20436;-41
2021/12/30 04:24:17;;;;;;;0.87;0.50;;;13.60;83.50;;;;;;7371841;19;21185;-41
2021/12/30 04:26:46;;;;;;;1.13;0.50;;;13.60;83.70;;;;;;7370986;19;20371;-41
2021/12/30 04:29:16;;;;;;;0.50;0.40;;;13.60;84.40;;;;;;7367092;19;20400;-41
2021/12/30 04:31:49;;;;;;;0.43;0.43;;;13.50;84.70;;;;;;7354637;19;20372;-41
2021/12/30 04:34:18;;;;;;;0.70;0.70;;;13.50;85.30;;;;;;7371085;19;20401;-42
2021/12/30 04:36:50;;;;;;;1.07;0.50;;;13.50;85.40;;;;;;7365243;19;20452;-43
2021/12/30 04:39:20;;;;;;;0.60;0.53;;;13.50;86.30;;;;;;7364192;19;20741;-41
2021/12/30 04:41:49;;;;;;;1.10;0.70;;;13.50;85.60;;;;;;7355911;19;20461;-41
2021/12/30 04:44:19;;;;;;;0.63;0.43;;;13.50;85.70;;;;;;7364716;19;20376;-42
2021/12/30 04:46:48;;;;;;;0.70;0.57;;;13.50;86.00;;;;;;7366343;19;20381;-41
2021/12/30 04:49:18;;;;;;;1.13;0.47;;;13.50;86.10;;;;;;7370465;19;20905;-41
2021/12/30 04:51:50;;;;;;;0.50;0.43;;;13.50;85.90;;;;;;7368060;19;21010;-41
2021/12/30 04:54:20;;;;;;;1.17;0.40;;;13.60;86.20;;;;;;7362865;19;20380;-41
2021/12/30 04:56:51;;;;;;;1.50;0.40;;;13.50;86.60;;;;;;7367643;19;20380;-41
2021/12/30 04:59:20;;;;;;;2.00;0.50;;;13.50;87.00;;;;;;7368709;19;20930;-41
2021/12/30 05:01:50;;;;;;;0.37;0.37;;;13.50;87.30;;;;;;7358355;19;20373;-41
2021/12/30 05:04:20;;;;;;;0.50;0.30;;;13.50;87.40;;;;;;7363383;19;20374;-41
2021/12/30 05:06:52;;;;;;;0.90;0.40;;;13.50;87.40;;;;;;7370338;19;20383;-41
2021/12/30 05:09:21;;;;;;;0.53;0.50;;;13.40;87.00;;;;;;7371377;19;20372;-42
2021/12/30 05:11:51;;;;;;;2.10;0.30;;;13.50;87.00;;;;;;7355489;19;20835;-37
2021/12/30 05:14:20;;;;;;;1.43;0.40;;;13.50;87.00;;;;;;7366749;19;20368;-36
2021/12/30 05:16:50;;;;;;;0.27;0.27;;;13.50;86.80;;;;;;7368762;19;20902;-36
2021/12/30 05:19:19;;;;;;;0.30;0.30;;;13.50;86.50;;;;;;7378539;19;20371;-36
2021/12/30 05:21:52;;;;;;;0.67;0.30;;;13.50;86.00;;;;;;7374627;19;20380;-36
2021/12/30 05:24:21;;;;;;;1.20;1.10;;;13.50;85.50;;;;;;7370915;19;20719;-36
2021/12/30 05:26:51;;;;;;;0.90;0.40;;;13.60;86.40;;;;;;7364458;19;20905;-37
2021/12/30 05:29:23;;;;;;;0.30;0.30;;;13.60;85.10;;;;;;7375153;19;20368;-36
2021/12/30 05:31:55;;;;;;;1.33;0.43;;;13.60;85.10;;;;;;7374687;19;20375;-41
2021/12/30 05:34:24;;;;;;;0.50;0.40;;;13.70;85.10;;;;;;7372389;19;20450;-42
2021/12/30 05:36:56;;;;;;;0.73;0.60;;;13.60;84.70;;;;;;7371928;19;20917;-41
2021/12/30 05:39:26;;;;;;;0.67;0.27;;;13.60;85.00;;;;;;7371941;19;20376;-41
2021/12/30 05:41:55;;;;;;;0.30;0.23;;;13.60;84.90;;;;;;7372006;19;20384;-43
2021/12/30 05:44:25;;;;;;;1.03;0.30;;;13.60;84.90;;;;;;7368262;19;20890;-42
2021/12/30 05:46:54;;;;;;;0.27;0.23;;;13.60;85.00;;;;;;7363857;19;20380;-42
2021/12/30 05:49:27;;;;;;;1.10;0.73;;;13.60;84.80;;;;;;7375035;19;20376;-42
2021/12/30 05:51:59;;;;;;;1.73;0.50;;;13.70;84.90;;;;;;7376092;19;20368;-42
2021/12/30 05:54:30;;;;;;;0.83;0.53;;;13.70;85.00;;;;;;7357315;19;20509;-42
2021/12/30 05:57:00;;;;;;;0.60;0.40;;;13.60;84.90;;;;;;7371214;19;20373;-42
2021/12/30 05:59:30;;;;;;;1.20;0.60;;;13.60;85.00;;;;;;7369410;19;20372;-42
2021/12/30 06:02:02;;;;;;;0.53;0.40;;;13.60;85.00;;;;;;7366280;19;20386;-42
2021/12/30 06:04:31;;;;;;;1.87;0.50;;;13.60;85.10;;;;;;7368684;19;20392;-42
2021/12/30 06:07:04;;;;;;;0.50;0.43;;;13.60;85.40;;;;;;7372699;19;20416;-42
2021/12/30 06:09:33;;;;;;;0.47;0.37;;;13.70;85.50;;;;;;7374470;19;20408;-41
2021/12/30 06:12:03;;;;;;;0.50;0.30;;;13.70;85.40;;;;;;7363581;19;20428;-42
2021/12/30 06:14:32;;;;;;;3.20;2.50;;;13.70;85.40;;;;;;7366283;19;20396;-42
2021/12/30 06:17:02;;;;;;;0.60;0.50;;;13.70;85.50;;;;;;7368323;19;20754;-42
2021/12/30 06:19:31;;;;;;;0.70;0.33;;;13.70;85.70;;;;;;7373864;19;20602;-42
2021/12/30 06:22:03;;;;;;;0.57;0.30;;;13.70;86.00;;;;;;7369875;19;20368;-42
2021/12/30 06:24:33;;;;;;;0.40;0.40;;;13.60;86.10;;;;;;7366115;19;20368;-42
2021/12/30 06:27:03;;;;;;;0.73;0.60;;;13.70;86.40;;;;;;7370518;19;20472;-42
2021/12/30 06:29:35;;;;;;;0.47;0.30;;;13.60;86.40;;;;;;7368597;19;20791;-42
2021/12/30 06:32:05;;;;;;;1.27;0.60;;;13.60;86.60;;;;;;7370667;19;20386;-41
2021/12/30 06:34:35;;;;;;;0.30;0.27;;;13.60;86.80;;;;;;7361217;19;20737;-42
2021/12/30 06:37:07;;;;;;;2.20;1.27;;;13.50;87.20;;;;;;7366878;19;20420;-42
2021/12/30 06:39:37;;;;;;;1.07;0.50;;;13.60;87.20;;;;;;7372365;19;20364;-42
2021/12/30 06:42:07;;;;;;;0.30;0.20;;;13.60;87.40;;;;;;7368265;19;20777;-42
2021/12/30 06:44:37;;;;;;;0.30;0.30;;;13.50;87.50;;;;;;7364514;19;20392;-41
2021/12/30 06:47:08;;;;;;;0.53;0.50;;;13.50;87.80;;;;;;7364825;19;20539;-42
2021/12/30 06:49:38;;;;;;;0.97;0.40;;;13.60;87.80;;;;;;7361320;19;20443;-42
2021/12/30 06:52:14;;;;;;;1.33;0.60;;;13.60;87.60;;;;;;7374921;19;20791;-42
2021/12/30 06:54:46;;;;;;;0.67;0.40;;;13.60;87.60;;;;;;7352916;19;21172;-42
2021/12/30 06:57:15;;;;;;;0.87;0.67;;;13.60;87.60;;;;;;7362612;19;20364;-42
2021/12/30 06:59:49;;;;;;;0.73;0.40;;;13.60;88.00;;;;;;7369809;19;20473;-41
2021/12/30 07:02:18;;;;;;;0.50;0.50;;;13.50;89.00;;;;;;7369403;19;20380;-42
2021/12/30 07:04:48;;;;;;;0.40;0.30;;;13.50;89.10;;;;;;7364706;19;20742;-42
2021/12/30 07:07:22;;;;;;;1.00;0.60;;;13.50;89.10;;;;;;7363346;19;20369;-42
2021/12/30 07:09:51;;;;;;;2.03;0.50;;;13.50;89.00;;;;;;7367014;19;20480;-41
2021/12/30 07:12:21;;;;;;;0.40;0.33;;;13.50;89.00;;;;;;7358161;19;20436;-42
2021/12/30 07:14:51;;;;;;;0.40;0.33;;;13.60;89.20;;;;;;7362927;19;20971;-42
2021/12/30 07:17:20;;;;;;;1.30;0.40;;;13.50;89.20;;;;;;7368611;19;20381;-42
2021/12/30 07:19:50;;;;;;;0.90;0.70;;;13.50;89.40;;;;;;7370635;19;20380;-42
2021/12/30 07:22:22;;;;;;;0.53;0.53;;;13.50;90.00;;;;;;7367385;19;20364;-42
2021/12/30 07:24:51;;;;;;;0.30;0.30;;;13.50;90.00;;;;;;7364893;19;20384;-42
2021/12/30 07:27:21;;;;;;;0.63;0.37;;;13.50;89.80;;;;;;7374902;19;20368;-41
2021/12/30 07:29:50;;;;;;;1.33;0.50;;;13.50;90.20;;;;;;7366680;19;20778;-42
2021/12/30 07:32:20;;;;;;;0.50;0.40;;;13.50;90.10;;;;;;7366072;19;20423;-42
2021/12/30 07:34:52;;;;;;;0.57;0.57;;;13.50;90.00;;;;;;7365890;19;20372;-42
2021/12/30 07:37:24;;;;;;;0.90;0.60;;;13.50;89.90;;;;;;7362097;19;20959;-42
2021/12/30 07:39:54;;;;;;;0.43;0.40;;;13.60;90.00;;;;;;7366775;19;20372;-42
2021/12/30 07:42:23;;;;;;;0.50;0.37;;;13.60;89.80;;;;;;7361864;19;20384;-42
2021/12/30 07:44:53;;;;;;;2.50;0.40;;;13.60;89.90;;;;;;7359257;19;20924;-42
2021/12/30 07:47:22;;;;;;;2.97;0.50;;;13.60;89.40;;;;;;7361874;19;20380;-42
2021/12/30 07:49:52;;;;;;;1.40;0.43;;;13.60;89.80;;;;;;7357616;19;21137;-42
2021/12/30 07:52:24;;;;;;;0.50;0.33;;;13.60;90.00;;;;;;7369077;19;20380;-42
2021/12/30 07:54:54;;;;;;;11.00;2.47;;;13.60;90.00;;;;;;7364679;19;20862;-41
2021/12/30 07:57:23;;;;;;;1.10;0.60;;;13.70;89.40;;;;;;7355017;19;20404;-42
2021/12/30 07:59:54;;;;;;;0.80;0.40;;;13.80;89.20;;;;;;7357365;19;20413;-42
2021/12/30 08:02:26;;;;;;;0.50;0.50;;;13.80;89.30;;;;;;7354416;19;20799;-42
2021/12/30 08:04:55;;;;;;;0.60;0.40;;;13.80;89.40;;;;;;7351886;19;20409;-42
2021/12/30 08:07:27;;;;;;;0.40;0.30;;;13.80;89.20;;;;;;7356430;19;20415;-37
2021/12/30 08:09:57;;;;;;;0.70;0.40;;;13.80;89.10;;;;;;7355740;19;21008;-36
2021/12/30 08:12:26;;;;;;;0.90;0.53;;;13.80;88.90;;;;;;7353116;19;20441;-37
2021/12/30 08:14:56;;;;;;;0.73;0.30;;;13.80;88.70;;;;;;7356854;19;20417;-37
2021/12/30 08:17:25;;;;;;;0.60;0.30;;;13.80;88.90;;;;;;7350370;19;20375;-37
2021/12/30 08:19:55;;;;;;;0.63;0.47;;;13.80;88.60;;;;;;7367878;19;20376;-37
2021/12/30 08:22:27;;;;;;;0.60;0.40;;;13.90;88.50;;;;;;7362638;19;20383;-37
2021/12/30 08:24:57;;;;;;;0.30;0.20;;;13.90;88.30;;;;;;7365119;19;20388;-37
2021/12/30 08:27:26;;;;;;;0.37;0.30;;;13.90;87.90;;;;;;7364948;19;20474;-37
2021/12/30 08:29:58;;;;;;;0.40;0.40;;;13.90;88.40;;;;;;7365248;19;20735;-42
2021/12/30 08:32:28;;;;;;;0.40;0.40;;;13.90;88.80;;;;;;7350950;19;20364;-42
2021/12/30 08:35:02;;;;;;;1.13;0.30;;;13.90;88.00;;;;;;7350421;19;20372;-42
2021/12/30 08:37:36;;;;;;;0.40;0.40;;;13.90;88.30;;;;;;7349134;19;20452;-42
2021/12/30 08:40:09;;;;;;;0.37;0.30;;;14.00;88.20;;;;;;7359429;19;21001;-42
2021/12/30 08:42:39;;;;;;;0.40;0.40;;;14.00;87.70;;;;;;7358600;19;20396;-41
2021/12/30 08:45:13;;;;;;;0.40;0.40;;;14.20;88.00;;;;;;7341260;19;20385;-42
2021/12/30 08:47:44;;;;;;;0.30;0.30;;;14.10;87.30;;;;;;7353588;19;20429;-42
2021/12/30 08:50:15;;;;;;;0.30;0.30;;;14.10;87.10;;;;;;7369822;19;20922;-42
2021/12/30 08:52:49;;;;;;;0.30;0.30;;;14.10;86.40;;;;;;7361279;19;20419;-42
2021/12/30 08:55:22;;;;;;;0.57;0.43;;;14.10;86.50;;;;;;7339362;19;20412;-42
2021/12/30 08:57:51;;;;;;;0.50;0.40;;;14.20;86.40;;;;;;7352855;19;20387;-41
2021/12/30 09:00:23;;;;;;;0.47;0.30;;;14.20;86.00;;;;;;7339317;19;20436;-41
2021/12/30 09:02:53;;;;;;;0.40;0.30;;;14.30;86.60;;;;;;7345196;19;20372;-41
2021/12/30 09:05:24;;;;;;;0.50;0.40;;;14.40;85.60;;;;;;7355563;19;20426;-41
2021/12/30 09:07:56;;;;;;;0.30;0.30;;;14.70;85.00;;;;;;7359591;19;20404;-41
2021/12/30 09:10:26;;;;;;;0.63;0.30;;;15.30;83.40;;;;;;7358076;19;20439;-41
2021/12/30 09:12:58;;;;;;;0.57;0.50;;;16.10;79.00;;;;;;7358487;19;20527;-41
2021/12/30 09:15:29;;;;;;;0.30;0.30;;;16.70;75.10;;;;;;7357565;19;20375;-41
2021/12/30 09:18:00;;;;;;;0.93;0.30;;;16.70;74.80;;;;;;7360138;19;20383;-41
2021/12/30 09:20:29;;;;;;;0.30;0.30;;;16.80;74.20;;;;;;7369776;19;21362;-41
2021/12/30 09:23:03;;;;;;;0.73;0.40;;;16.50;74.40;;;;;;7361419;19;20946;-41
2021/12/30 09:25:35;;;;;;;0.30;0.30;;;16.40;76.20;;;;;;7367067;19;20415;-41
2021/12/30 09:28:07;;;;;;;2.10;0.33;;;16.80;75.20;;;;;;7370574;19;20376;-42
2021/12/30 09:30:37;;;;;;;0.40;0.20;;;16.90;73.20;;;;;;7370212;19;20392;-41
2021/12/30 09:33:08;;;;;;;0.50;0.30;;;16.70;73.40;;;;;;7368626;19;20379;-41
2021/12/30 09:35:38;;;;;;;0.60;0.40;;;16.50;74.00;;;;;;7365077;19;20429;-41
2021/12/30 09:38:10;;;;;;;0.53;0.30;;;16.20;75.30;;;;;;7360792;19;20387;-41
2021/12/30 09:40:40;;;;;;;0.77;0.30;;;16.10;75.90;;;;;;7369471;19;20899;-41
2021/12/30 09:43:11;;;;;;;0.60;0.50;;;16.00;76.70;;;;;;7367107;19;21138;-41
2021/12/30 09:45:42;;;;;;;1.00;0.50;;;16.00;76.80;;;;;;7366749;19;20384;-41
2021/12/30 09:48:18;;;;;;;0.30;0.30;;;16.00;77.00;;;;;;7369761;19;20382;-41
2021/12/30 09:50:52;;;;;;;0.20;0.20;;;16.00;77.30;;;;;;7351444;19;20486;-41
2021/12/30 09:53:28;;;;;;;0.40;0.30;;;15.90;77.10;;;;;;7355860;19;20360;-41
2021/12/30 09:55:59;;;;;;;0.53;0.37;;;16.00;77.10;;;;;;7350288;19;20920;-41
2021/12/30 09:58:29;;;;;;;0.40;0.30;;;16.00;77.20;;;;;;7345212;19;21023;-41
2021/12/30 10:00:59;;;;;;;1.30;0.73;;;16.10;76.80;;;;;;7347603;19;20415;-36
2021/12/30 10:03:30;;;;;;;0.47;0.30;;;16.00;76.60;;;;;;7336921;19;20376;-37
2021/12/30 10:06:09;;;;;;;1.00;0.60;;;16.20;76.60;;;;;;7345602;19;20376;-37
2021/12/30 10:08:43;;;;;;;0.50;0.40;;;16.30;76.50;;;;;;7352483;19;20375;-37
2021/12/30 10:11:15;;;;;;;0.70;0.50;;;16.40;76.20;;;;;;7354218;19;20752;-36
2021/12/30 10:13:52;;;;;;;1.10;1.00;;;16.50;75.70;;;;;;7361231;19;21465;-36
2021/12/30 10:16:23;;;;;;;0.80;0.53;;;16.50;75.10;;;;;;7355102;19;20372;-36
2021/12/30 10:18:55;;;;;;;0.80;0.47;;;16.60;75.20;;;;;;7345094;19;20408;-36
2021/12/30 10:21:29;;;;;;;0.93;0.60;;;16.50;75.30;;;;;;7354243;19;20371;-37
2021/12/30 10:24:03;;;;;;;0.60;0.60;;;16.60;75.40;;;;;;7369074;19;21485;-36
2021/12/30 10:26:33;;;;;;;0.83;0.60;;;16.60;75.00;;;;;;7362841;19;20372;-37
2021/12/30 10:29:05;;;;;;;0.50;0.40;;;16.60;74.70;;;;;;7360701;19;20368;-37
2021/12/30 10:31:38;;;;;;;0.57;0.50;;;16.70;74.60;;;;;;7359424;19;20957;-36
2021/12/30 10:34:09;;;;;;;0.30;0.30;;;16.50;74.70;;;;;;7368277;19;21265;-36
2021/12/30 10:36:41;;;;;;;0.40;0.40;;;16.50;75.20;;;;;;7356910;19;20391;-37
2021/12/30 10:39:23;;;;;;;0.90;0.50;;;16.50;75.40;;;;;;7360681;19;20372;-36
2021/12/30 10:42:21;;;;;;;0.50;0.50;;;16.50;75.40;;;;;;7366954;19;20404;-41
2021/12/30 10:44:52;;;;;;;0.50;0.50;;;16.50;75.20;;;;;;7354619;19;20735;-40
2021/12/30 10:47:27;;;;;;;0.50;0.37;;;16.50;75.60;;;;;;7346748;19;20464;-41
2021/12/30 10:50:00;;;;;;;0.87;0.50;;;16.60;74.90;;;;;;7365875;19;21093;-41
2021/12/30 10:52:30;;;;;;;0.87;0.40;;;16.90;74.60;;;;;;7359789;19;20384;-41
2021/12/30 10:55:14;;;;;;;0.80;0.47;;;17.20;73.50;;;;;;7347723;19;20420;-41
2021/12/30 10:57:43;;;;;;;0.50;0.40;;;17.40;72.50;;;;;;7347685;19;20368;-42
2021/12/30 11:00:27;;;;;;;1.40;0.50;;;17.70;71.70;;;;;;7357182;19;21028;-42
2021/12/30 11:03:24;;;;;;;2.30;0.63;;;17.90;70.70;;;;;;7331258;19;20364;-41
2021/12/30 11:06:12;;;;;;;1.13;0.83;;;18.10;69.70;;;;;;7341220;19;21253;-42
2021/12/30 11:08:42;;;;;;;2.40;1.70;;;18.20;69.00;;;;;;7362396;19;24363;-42
2021/12/30 11:11:28;;;;;;;0.50;0.40;;;18.30;68.90;;;;;;7339194;19;21026;-37
2021/12/30 11:14:02;;;;;;;0.90;0.60;;;18.60;69.00;;;;;;7359407;19;20387;-37
2021/12/30 11:16:32;;;;;;;0.73;0.50;;;18.80;67.50;;;;;;7365302;19;20371;-37
2021/12/30 11:19:02;;;;;;;0.50;0.50;;;20.00;64.70;;;;;;7368840;19;20458;-36
2021/12/30 11:21:39;;;;;;;0.40;0.40;;;19.70;62.20;;;;;;7371763;19;21428;-38
2021/12/30 11:24:11;;;;;;;2.30;1.13;;;19.50;62.80;;;;;;7375563;19;20475;-37
2021/12/30 11:26:43;;;;;;;0.60;0.50;;;19.40;63.00;;;;;;7345209;19;20372;-37
2021/12/30 11:29:13;;;;;;;1.70;1.07;;;19.00;64.60;;;;;;7347972;19;20387;-36
2021/12/30 11:31:42;;;;;;;0.60;0.40;;;18.90;65.20;;;;;;7347586;19;20379;-36
2021/12/30 11:34:11;;;;;;;0.40;0.20;;;18.70;66.60;;;;;;7354441;19;20468;-37
2021/12/30 11:36:41;;;;;;;1.63;1.43;;;18.70;66.60;;;;;;7351202;19;20415;-37
2021/12/30 11:39:16;;;;;;;3.60;3.00;;;18.80;65.80;;;;;;7344284;19;20392;-37
2021/12/30 11:41:57;;;;;;;2.40;1.80;;;18.90;65.80;;;;;;7338564;19;20996;-42
2021/12/30 11:44:45;;;;;;;2.40;1.60;;;18.80;66.00;;;;;;7351708;19;20380;-42
2021/12/30 11:47:45;;;;;;;1.77;0.70;;;18.90;66.00;;;;;;7359715;19;20774;-41
2021/12/30 11:50:18;;;;;;;1.00;0.50;;;18.60;66.10;;;;;;7346877;19;20429;-37
2021/12/30 11:53:03;;;;;;;0.80;0.50;;;18.50;65.70;;;;;;7324753;19;20414;-37
2021/12/30 11:55:52;;;;;;;0.80;0.60;;;18.50;66.30;;;;;;7351234;19;20375;-36
2021/12/30 11:58:50;;;;;;;0.87;0.60;;;18.60;66.10;;;;;;7343101;19;21112;-36
2021/12/30 12:01:42;;;;;;;0.93;0.57;;;18.60;66.00;;;;;;7340385;19;24075;-37
2021/12/30 12:04:16;;;;;;;1.27;1.00;;;18.50;66.00;;;;;;7346638;19;20361;-36
2021/12/30 12:07:04;;;;;;;1.37;1.27;;;18.40;66.40;;;;;;7333967;19;20416;-37
2021/12/30 12:09:40;;;;;;;0.67;0.60;;;18.20;66.80;;;;;;7355129;19;20484;-36
2021/12/30 12:12:12;;;;;;;1.67;1.47;;;18.30;67.60;;;;;;7332660;19;20435;-37
2021/12/30 12:14:59;;;;;;;1.20;0.97;;;18.00;68.10;;;;;;7362100;19;20379;-36
2021/12/30 12:17:35;;;;;;;0.30;0.20;;;18.00;68.00;;;;;;7360876;19;20480;-37
2021/12/30 12:20:21;;;;;;;0.57;0.30;;;18.00;67.20;;;;;;7349148;19;24251;-37
2021/12/30 12:22:51;;;;;;;0.70;0.57;;;17.90;68.10;;;;;;7349753;19;20392;-36
2021/12/30 12:25:29;;;;;;;0.33;0.30;;;18.00;68.40;;;;;;7358108;19;20924;-36
2021/12/30 12:28:00;;;;;;;1.80;0.70;;;18.20;67.50;;;;;;7357601;19;20412;-37
2021/12/30 12:30:35;;;;;;;1.40;0.40;;;18.30;66.70;;;;;;7355133;19;20376;-37
2021/12/30 12:33:25;;;;;;;1.30;0.60;;;18.40;66.80;;;;;;7346058;19;20364;-37
2021/12/30 12:35:55;;;;;;;0.60;0.60;;;18.60;65.80;;;;;;7346649;19;20423;-37
2021/12/30 12:38:42;;;;;;;0.80;0.57;;;18.50;65.20;;;;;;7345602;19;20728;-37
2021/12/30 12:41:19;;;;;;;0.73;0.50;;;18.40;65.80;;;;;;7358750;19;20368;-36
2021/12/30 12:43:54;;;;;;;0.90;0.40;;;18.10;66.50;;;;;;7359304;19;20391;-36
2021/12/30 12:46:40;;;;;;;0.50;0.40;;;17.90;67.70;;;;;;7360224;19;20969;-36
2021/12/30 12:49:09;;;;;;;0.50;0.50;;;17.70;68.10;;;;;;7352822;19;20954;-37
2021/12/30 12:51:51;;;;;;;1.03;0.80;;;17.40;69.20;;;;;;7360363;19;20364;-41
2021/12/30 12:54:35;;;;;;;0.37;0.30;;;17.30;70.10;;;;;;7340103;19;20480;-41
2021/12/30 12:57:09;;;;;;;0.40;0.30;;;17.30;70.50;;;;;;7336332;19;20459;-40
2021/12/30 12:59:40;;;;;;;3.30;0.50;;;17.20;70.60;;;;;;7346908;19;20387;-41
2021/12/30 13:02:15;;;;;;;0.73;0.73;;;17.20;70.50;;;;;;7333463;19;20388;-36
2021/12/30 13:04:45;;;;;;;0.57;0.40;;;17.30;70.50;;;;;;7340045;19;20722;-36
2021/12/30 13:07:18;;;;;;;0.57;0.33;;;17.30;71.00;;;;;;7326158;19;20999;-37
2021/12/30 13:09:50;;;;;;;0.40;0.40;;;17.30;71.00;;;;;;7357802;19;20376;-37
2021/12/30 13:12:22;;;;;;;0.40;0.30;;;17.30;70.50;;;;;;7347580;19;20450;-37
2021/12/30 13:14:54;;;;;;;1.17;0.60;;;17.40;70.60;;;;;;7363439;19;20954;-36